Time;durP1;ratioP1;P1;durP2;ratioP2;P2;SDS_P1;SDS_P2;PMS_P1;PMS_P2;Temp;Humidity;BMP_temperature;BMP_pressure;BME280_temperature;BME280_humidity;BME280_pressure;Samples;Min_cycle;Max_cycle;Signal;HPM_P1;HPM_P2
2020/12/21 00:01:41;;;;;;;48.78;28.10;;;;;;;;;;5075734;28;20024;-69
2020/12/21 00:04:07;;;;;;;44.75;27.17;;;;;;;;;;5075576;28;20447;-69
2020/12/21 00:06:32;;;;;;;49.60;28.45;;;;;;;;;;5093376;28;20083;-70
2020/12/21 00:08:58;;;;;;;49.28;28.92;;;;;;;;;;5075269;28;20054;-69
2020/12/21 00:11:31;;;;;;;45.75;26.42;;;;;;;;;;5093875;28;20036;-69
2020/12/21 00:13:56;;;;;;;48.25;28.63;;;;;;;;;;5075375;28;20119;-69
2020/12/21 00:16:23;;;;;;;51.67;29.13;;;;;;;;;;5093448;28;20032;-69
2020/12/21 00:18:48;;;;;;;53.20;29.27;;;;;;;;;;5075127;28;20044;-71
2020/12/21 00:21:14;;;;;;;48.42;28.83;;;;;;;;;;5075803;28;20232;-70
2020/12/21 00:23:41;;;;;;;48.30;27.95;;;;;;;;;;5092703;28;20035;-70
2020/12/21 00:26:09;;;;;;;51.17;28.20;;;;;;;;;;5093376;28;20016;-70
2020/12/21 00:28:35;;;;;;;44.20;26.33;;;;;;;;;;5093373;28;20031;-68
2020/12/21 00:31:00;;;;;;;47.50;27.52;;;;;;;;;;5093047;28;20496;-68
2020/12/21 00:33:30;;;;;;;48.25;27.10;;;;;;;;;;5093192;28;20028;-68
2020/12/21 00:35:56;;;;;;;51.50;28.07;;;;;;;;;;5093312;28;20039;-69
2020/12/21 00:38:21;;;;;;;43.38;26.48;;;;;;;;;;5093410;28;20286;-69
2020/12/21 00:40:47;;;;;;;47.08;27.38;;;;;;;;;;5093634;28;20098;-70
2020/12/21 00:43:12;;;;;;;43.78;26.02;;;;;;;;;;5093195;28;20036;-71
2020/12/21 00:45:39;;;;;;;45.63;25.80;;;;;;;;;;5058148;28;20487;-70
2020/12/21 00:48:04;;;;;;;44.20;25.80;;;;;;;;;;5058675;28;20130;-70
2020/12/21 00:50:30;;;;;;;42.65;25.35;;;;;;;;;;5093705;28;20103;-70
2020/12/21 00:52:55;;;;;;;39.15;24.80;;;;;;;;;;5058331;28;20119;-69
2020/12/21 00:55:21;;;;;;;41.75;24.88;;;;;;;;;;5075353;28;20028;-69
2020/12/21 00:57:46;;;;;;;45.50;26.80;;;;;;;;;;5093490;28;20036;-72
2020/12/21 01:00:12;;;;;;;46.70;26.20;;;;;;;;;;5093373;28;20058;-72
2020/12/21 01:02:38;;;;;;;45.40;27.35;;;;;;;;;;5093158;28;20029;-72
2020/12/21 01:05:03;;;;;;;42.90;26.35;;;;;;;;;;5093056;28;20039;-72
2020/12/21 01:07:29;;;;;;;44.83;26.95;;;;;;;;;;5093077;28;20044;-72
2020/12/21 01:09:54;;;;;;;44.88;27.05;;;;;;;;;;5075432;28;20036;-73
2020/12/21 01:12:20;;;;;;;48.00;26.55;;;;;;;;;;5093528;28;20036;-73
2020/12/21 01:14:45;;;;;;;42.15;25.42;;;;;;;;;;5075000;28;20459;-72
2020/12/21 01:17:11;;;;;;;44.50;26.20;;;;;;;;;;5074841;28;20043;-74
2020/12/21 01:19:36;;;;;;;43.75;25.42;;;;;;;;;;5093357;28;20028;-73
2020/12/21 01:22:02;;;;;;;46.55;25.60;;;;;;;;;;5075390;28;20036;-73
2020/12/21 01:24:28;;;;;;;45.53;26.70;;;;;;;;;;5092789;28;20024;-74
2020/12/21 01:26:54;;;;;;;41.58;25.88;;;;;;;;;;5093372;28;20078;-74
2020/12/21 01:29:20;;;;;;;42.28;25.30;;;;;;;;;;5092986;28;20067;-73
2020/12/21 01:31:45;;;;;;;40.92;25.88;;;;;;;;;;5092900;28;20090;-74
2020/12/21 01:34:12;;;;;;;39.28;25.45;;;;;;;;;;5092902;28;20051;-74
2020/12/21 01:36:38;;;;;;;40.88;25.02;;;;;;;;;;5077944;28;20089;-73
2020/12/21 01:39:04;;;;;;;41.53;26.27;;;;;;;;;;5096356;28;20413;-73
2020/12/21 01:41:29;;;;;;;39.20;24.50;;;;;;;;;;5096396;28;20044;-73
2020/12/21 01:43:55;;;;;;;38.38;24.60;;;;;;;;;;5078618;28;20481;-73
2020/12/21 01:46:21;;;;;;;42.00;25.40;;;;;;;;;;5096325;28;20032;-73
2020/12/21 01:48:47;;;;;;;41.42;24.70;;;;;;;;;;5078234;28;20394;-73
2020/12/21 01:51:19;;;;;;;41.90;25.65;;;;;;;;;;5077995;28;20052;-73
2020/12/21 01:53:46;;;;;;;42.13;25.67;;;;;;;;;;5077934;28;20513;-73
2020/12/21 01:56:14;;;;;;;42.33;25.30;;;;;;;;;;5096122;28;20032;-73
2020/12/21 01:58:40;;;;;;;39.20;25.33;;;;;;;;;;5096070;28;20035;-73
2020/12/21 02:01:05;;;;;;;41.40;25.40;;;;;;;;;;5077743;28;20028;-73
2020/12/21 02:03:32;;;;;;;43.47;26.13;;;;;;;;;;5078256;28;20036;-73
2020/12/21 02:05:58;;;;;;;43.35;26.48;;;;;;;;;;5095440;28;20044;-73
2020/12/21 02:08:23;;;;;;;43.08;25.45;;;;;;;;;;5095705;28;20101;-73
2020/12/21 02:10:50;;;;;;;41.67;24.80;;;;;;;;;;5096140;28;20115;-73
2020/12/21 02:13:15;;;;;;;38.75;24.42;;;;;;;;;;5095654;28;20040;-72
2020/12/21 02:15:41;;;;;;;38.55;24.27;;;;;;;;;;5077786;28;20058;-72
2020/12/21 02:18:06;;;;;;;38.45;23.55;;;;;;;;;;5095419;28;20043;-72
2020/12/21 02:20:32;;;;;;;39.85;24.73;;;;;;;;;;5095675;28;20024;-71
2020/12/21 02:22:58;;;;;;;39.08;23.17;;;;;;;;;;5095555;28;20507;-72
2020/12/21 02:25:24;;;;;;;39.22;24.13;;;;;;;;;;5077137;28;20035;-71
2020/12/21 02:27:49;;;;;;;39.58;23.88;;;;;;;;;;5095289;28;20486;-71
2020/12/21 02:30:15;;;;;;;41.65;24.05;;;;;;;;;;5095579;28;20469;-71
2020/12/21 02:32:42;;;;;;;36.78;23.67;;;;;;;;;;5076882;28;20040;-72
2020/12/21 02:35:08;;;;;;;42.80;24.27;;;;;;;;;;5095214;28;20111;-72
2020/12/21 02:37:33;;;;;;;35.47;22.98;;;;;;;;;;5095117;28;20059;-72
2020/12/21 02:39:59;;;;;;;37.75;22.75;;;;;;;;;;5095398;28;20031;-72
2020/12/21 02:42:25;;;;;;;37.13;23.23;;;;;;;;;;5095354;28;20039;-71
2020/12/21 02:44:50;;;;;;;38.80;23.55;;;;;;;;;;5077032;28;20044;-72
2020/12/21 02:47:16;;;;;;;38.30;23.95;;;;;;;;;;5076287;28;20044;-71
2020/12/21 02:49:41;;;;;;;40.47;23.65;;;;;;;;;;5076728;28;20459;-71
2020/12/21 02:52:07;;;;;;;39.55;23.13;;;;;;;;;;5094815;28;20044;-71
2020/12/21 02:54:32;;;;;;;39.95;22.38;;;;;;;;;;5076793;28;20095;-72
2020/12/21 02:56:58;;;;;;;41.25;23.27;;;;;;;;;;5094787;28;20040;-72
2020/12/21 02:59:23;;;;;;;38.33;23.73;;;;;;;;;;5094565;28;20390;-71
2020/12/21 03:01:49;;;;;;;38.72;24.08;;;;;;;;;;5094667;28;20043;-71
2020/12/21 03:04:15;;;;;;;37.45;23.70;;;;;;;;;;5094219;28;20044;-72
2020/12/21 03:06:41;;;;;;;39.80;24.38;;;;;;;;;;5094513;28;20818;-71
2020/12/21 03:09:06;;;;;;;37.83;22.85;;;;;;;;;;5094770;28;20105;-71
2020/12/21 03:11:32;;;;;;;39.25;23.35;;;;;;;;;;5076207;28;20490;-71
2020/12/21 03:13:57;;;;;;;38.70;22.65;;;;;;;;;;5094533;28;20036;-71
2020/12/21 03:16:25;;;;;;;38.30;23.55;;;;;;;;;;5094259;28;20044;-71
2020/12/21 03:18:51;;;;;;;39.35;22.45;;;;;;;;;;5094192;28;20047;-71
2020/12/21 03:21:16;;;;;;;37.55;23.15;;;;;;;;;;5094380;28;20115;-71
2020/12/21 03:23:42;;;;;;;39.33;22.70;;;;;;;;;;5094431;28;20516;-71
2020/12/21 03:26:08;;;;;;;38.13;22.75;;;;;;;;;;5094260;28;20039;-71
2020/12/21 03:28:33;;;;;;;37.63;22.08;;;;;;;;;;5094303;28;20032;-71
2020/12/21 03:30:59;;;;;;;39.67;23.73;;;;;;;;;;5075930;28;20157;-69
2020/12/21 03:33:24;;;;;;;39.63;23.42;;;;;;;;;;5094114;28;20078;-69
2020/12/21 03:35:50;;;;;;;38.45;22.20;;;;;;;;;;5094166;28;20071;-69
2020/12/21 03:38:15;;;;;;;36.17;21.70;;;;;;;;;;5093915;28;20024;-69
2020/12/21 03:40:41;;;;;;;40.25;23.98;;;;;;;;;;5093802;28;20028;-70
2020/12/21 03:43:06;;;;;;;38.97;23.83;;;;;;;;;;5075979;28;20024;-71
2020/12/21 03:45:32;;;;;;;41.03;22.67;;;;;;;;;;5094191;28;20024;-71
2020/12/21 03:47:58;;;;;;;40.25;23.55;;;;;;;;;;5094009;28;20020;-71
2020/12/21 03:50:24;;;;;;;45.95;26.73;;;;;;;;;;5075741;28;20036;-71
2020/12/21 03:52:49;;;;;;;40.22;22.50;;;;;;;;;;5094223;28;20028;-73
2020/12/21 03:55:15;;;;;;;39.35;23.23;;;;;;;;;;5093828;28;20115;-72
2020/12/21 03:57:41;;;;;;;36.50;21.77;;;;;;;;;;5093642;28;20024;-72
2020/12/21 04:00:07;;;;;;;36.10;22.45;;;;;;;;;;5092457;28;20036;-72
2020/12/21 04:02:38;;;;;;;38.72;23.42;;;;;;;;;;5076508;28;20382;-72
2020/12/21 04:05:03;;;;;;;38.08;22.67;;;;;;;;;;5090948;28;20047;-72
2020/12/21 04:07:29;;;;;;;39.85;23.25;;;;;;;;;;5073584;28;20394;-72
2020/12/21 04:09:55;;;;;;;37.22;22.92;;;;;;;;;;5073833;28;20040;-72
2020/12/21 04:12:20;;;;;;;41.70;23.52;;;;;;;;;;5073243;28;20028;-71
2020/12/21 04:14:45;;;;;;;38.42;22.40;;;;;;;;;;5073577;28;20028;-72
2020/12/21 04:17:11;;;;;;;36.83;22.33;;;;;;;;;;5073213;28;20478;-72
2020/12/21 04:19:36;;;;;;;37.30;22.00;;;;;;;;;;5073183;28;20131;-72
2020/12/21 04:22:02;;;;;;;35.53;21.63;;;;;;;;;;5055554;28;20021;-71
2020/12/21 04:24:27;;;;;;;38.58;22.88;;;;;;;;;;5055625;28;20044;-72
2020/12/21 04:26:53;;;;;;;35.40;22.52;;;;;;;;;;5073167;28;20036;-71
2020/12/21 04:29:18;;;;;;;39.90;22.67;;;;;;;;;;5055242;28;20029;-72
2020/12/21 04:31:44;;;;;;;40.85;23.80;;;;;;;;;;5073568;28;20474;-72
2020/12/21 04:34:09;;;;;;;43.22;25.85;;;;;;;;;;5073129;28;20116;-71
2020/12/21 04:36:35;;;;;;;41.45;24.58;;;;;;;;;;5072971;28;20544;-72
2020/12/21 04:39:01;;;;;;;37.83;23.15;;;;;;;;;;5055203;28;20067;-69
2020/12/21 04:41:26;;;;;;;39.33;22.75;;;;;;;;;;5055043;28;20032;-68
2020/12/21 04:43:53;;;;;;;38.45;22.60;;;;;;;;;;5055105;28;20035;-68
2020/12/21 04:46:21;;;;;;;63.30;34.78;;;;;;;;;;5073338;28;20459;-69
2020/12/21 04:48:46;;;;;;;124.60;64.15;;;;;;;;;;5073667;28;20029;-69
2020/12/21 04:51:15;;;;;;;99.07;53.15;;;;;;;;;;5073015;28;20214;-68
2020/12/21 04:53:40;;;;;;;94.70;48.60;;;;;;;;;;5070244;28;20368;-69
2020/12/21 04:56:08;;;;;;;52.58;30.42;;;;;;;;;;5067851;28;20111;-68
2020/12/21 04:58:34;;;;;;;76.63;31.33;;;;;;;;;;5053914;28;20136;-68
2020/12/21 05:00:59;;;;;;;78.50;32.72;;;;;;;;;;5054551;28;20104;-68
2020/12/21 05:03:25;;;;;;;51.72;27.80;;;;;;;;;;5056157;28;20063;-68
2020/12/21 05:05:50;;;;;;;45.45;26.13;;;;;;;;;;5068210;28;20048;-67
2020/12/21 05:08:16;;;;;;;42.22;25.95;;;;;;;;;;5093075;28;20124;-68
2020/12/21 05:10:43;;;;;;;40.05;26.10;;;;;;;;;;5095080;28;20028;-68
2020/12/21 05:13:11;;;;;;;50.47;30.40;;;;;;;;;;5096818;28;20125;-68
2020/12/21 05:15:36;;;;;;;65.75;41.60;;;;;;;;;;5096818;28;20119;-68
2020/12/21 05:18:06;;;;;;;69.43;44.70;;;;;;;;;;5096288;28;20119;-69
2020/12/21 05:20:31;;;;;;;54.50;33.47;;;;;;;;;;5094506;28;20032;-69
2020/12/21 05:22:57;;;;;;;52.45;31.00;;;;;;;;;;5094471;28;20040;-69
2020/12/21 05:25:23;;;;;;;39.58;26.05;;;;;;;;;;5095604;28;20549;-68
2020/12/21 05:27:48;;;;;;;40.40;26.83;;;;;;;;;;5095583;28;20119;-69
2020/12/21 05:30:13;;;;;;;49.90;29.17;;;;;;;;;;5094269;28;20111;-69
2020/12/21 05:32:39;;;;;;;41.03;25.30;;;;;;;;;;5095829;28;20128;-69
2020/12/21 05:35:05;;;;;;;45.75;28.60;;;;;;;;;;5096485;28;20028;-70
2020/12/21 05:37:31;;;;;;;41.55;25.27;;;;;;;;;;5096286;28;20032;-70
2020/12/21 05:39:58;;;;;;;38.28;24.35;;;;;;;;;;5096160;28;20035;-69
2020/12/21 05:42:25;;;;;;;46.08;25.98;;;;;;;;;;5096192;28;20089;-69
2020/12/21 05:44:57;;;;;;;50.63;26.27;;;;;;;;;;5096119;28;20028;-69
2020/12/21 05:47:23;;;;;;;62.33;29.85;;;;;;;;;;5095732;28;20036;-70
2020/12/21 05:49:56;;;;;;;66.63;31.00;;;;;;;;;;5096142;28;20069;-70
2020/12/21 05:52:27;;;;;;;60.08;30.55;;;;;;;;;;5096022;28;20040;-70
2020/12/21 05:54:53;;;;;;;58.75;28.52;;;;;;;;;;5094617;28;20047;-69
2020/12/21 05:57:19;;;;;;;54.63;27.67;;;;;;;;;;5094851;28;20027;-69
2020/12/21 05:59:48;;;;;;;60.63;29.65;;;;;;;;;;5095800;28;20043;-68
2020/12/21 06:02:16;;;;;;;60.20;28.63;;;;;;;;;;5095920;28;20028;-69
2020/12/21 06:04:46;;;;;;;52.55;27.58;;;;;;;;;;5095741;28;20093;-69
2020/12/21 06:07:18;;;;;;;45.78;25.98;;;;;;;;;;5116458;28;20044;-69
2020/12/21 06:09:45;;;;;;;51.90;26.92;;;;;;;;;;5116142;28;20039;-69
2020/12/21 06:12:10;;;;;;;51.92;29.17;;;;;;;;;;5116003;28;20059;-69
2020/12/21 06:14:36;;;;;;;57.53;32.10;;;;;;;;;;5097669;28;20094;-69
2020/12/21 06:17:01;;;;;;;56.67;31.50;;;;;;;;;;5115988;28;20111;-69
2020/12/21 06:19:27;;;;;;;54.00;30.52;;;;;;;;;;5097583;28;20050;-69
2020/12/21 06:21:56;;;;;;;61.10;31.42;;;;;;;;;;5114715;28;20050;-68
2020/12/21 06:24:26;;;;;;;71.25;32.65;;;;;;;;;;5115812;28;20035;-67
2020/12/21 06:26:52;;;;;;;73.72;36.55;;;;;;;;;;5097612;28;20028;-67
2020/12/21 06:29:19;;;;;;;66.43;33.75;;;;;;;;;;5097633;28;20040;-67
2020/12/21 06:31:45;;;;;;;73.90;36.63;;;;;;;;;;5115507;28;20031;-68
2020/12/21 06:34:12;;;;;;;66.70;35.25;;;;;;;;;;5115546;28;20046;-69
2020/12/21 06:36:38;;;;;;;66.75;33.22;;;;;;;;;;5115624;28;20055;-69
2020/12/21 06:39:04;;;;;;;68.90;35.10;;;;;;;;;;5097387;28;20074;-69
2020/12/21 06:41:30;;;;;;;63.78;33.08;;;;;;;;;;5115517;28;20107;-69
2020/12/21 06:44:03;;;;;;;60.40;32.95;;;;;;;;;;5115316;28;20499;-70
2020/12/21 06:46:29;;;;;;;55.97;29.60;;;;;;;;;;5097262;28;20043;-70
2020/12/21 06:49:02;;;;;;;54.05;31.13;;;;;;;;;;5115172;28;20024;-68
2020/12/21 06:51:28;;;;;;;42.67;25.42;;;;;;;;;;5115308;28;20495;-69
2020/12/21 06:53:57;;;;;;;41.40;25.63;;;;;;;;;;5115439;28;20074;-69
2020/12/21 06:56:26;;;;;;;42.10;25.90;;;;;;;;;;5096864;28;20044;-69
2020/12/21 06:58:51;;;;;;;42.95;26.23;;;;;;;;;;5094002;28;20038;-69
2020/12/21 07:01:17;;;;;;;46.92;26.98;;;;;;;;;;5087448;28;20394;-69
2020/12/21 07:03:43;;;;;;;46.70;26.10;;;;;;;;;;5090647;28;20024;-69
2020/12/21 07:06:09;;;;;;;40.72;25.00;;;;;;;;;;5073771;28;20035;-69
2020/12/21 07:08:34;;;;;;;41.42;24.95;;;;;;;;;;5074307;28;20123;-69
2020/12/21 07:11:00;;;;;;;51.28;28.17;;;;;;;;;;5039717;28;20371;-69
2020/12/21 07:13:26;;;;;;;49.90;27.85;;;;;;;;;;5078022;28;20060;-68
2020/12/21 07:15:56;;;;;;;50.45;28.05;;;;;;;;;;5069182;28;20024;-68
2020/12/21 07:18:21;;;;;;;50.80;28.60;;;;;;;;;;5073962;28;20079;-68
2020/12/21 07:20:47;;;;;;;52.08;28.70;;;;;;;;;;5074054;28;20462;-68
2020/12/21 07:23:12;;;;;;;50.08;27.58;;;;;;;;;;5074185;28;20036;-68
2020/12/21 07:25:47;;;;;;;47.90;26.23;;;;;;;;;;5074041;28;20021;-68
2020/12/21 07:28:21;;;;;;;59.25;31.02;;;;;;;;;;5076685;28;20029;-68
2020/12/21 07:30:46;;;;;;;60.38;31.15;;;;;;;;;;5073879;28;20467;-68
2020/12/21 07:33:12;;;;;;;54.78;30.15;;;;;;;;;;5073712;28;20078;-68
2020/12/21 07:35:38;;;;;;;44.92;26.73;;;;;;;;;;5073795;28;20033;-68
2020/12/21 07:38:10;;;;;;;39.95;24.23;;;;;;;;;;5061175;28;20029;-68
2020/12/21 07:40:36;;;;;;;37.20;23.85;;;;;;;;;;5066407;28;20032;-68
2020/12/21 07:43:04;;;;;;;38.60;23.98;;;;;;;;;;5067596;28;20031;-72
2020/12/21 07:45:31;;;;;;;39.90;23.35;;;;;;;;;;5080337;28;20035;-72
2020/12/21 07:47:56;;;;;;;41.65;24.60;;;;;;;;;;5094090;28;20027;-73
2020/12/21 07:50:22;;;;;;;44.58;24.77;;;;;;;;;;5093763;28;20398;-72
2020/12/21 07:52:48;;;;;;;40.60;24.02;;;;;;;;;;5093767;28;20038;-73
2020/12/21 07:55:14;;;;;;;40.58;24.77;;;;;;;;;;5093578;28;20032;-72
2020/12/21 07:57:40;;;;;;;43.70;28.42;;;;;;;;;;5093534;28;20099;-72
2020/12/21 08:00:05;;;;;;;39.95;25.35;;;;;;;;;;5093548;28;20126;-72
2020/12/21 08:02:31;;;;;;;40.67;26.02;;;;;;;;;;5093904;28;20488;-72
2020/12/21 08:04:58;;;;;;;44.25;27.40;;;;;;;;;;5093076;28;20028;-72
2020/12/21 08:11:31;;;;;;;56.47;33.40;;;;;;;;;;5094228;28;20085;-72
2020/12/21 08:17:32;;;;;;;100.10;54.80;;;;;;;;;;5093838;28;20031;-72
2020/12/21 08:23:32;;;;;;;82.65;43.88;;;;;;;;;;5094065;28;20031;-73
2020/12/21 08:29:33;;;;;;;93.53;49.47;;;;;;;;;;5093736;28;20113;-72
2020/12/21 08:35:33;;;;;;;89.05;46.60;;;;;;;;;;5093902;28;20030;-72
2020/12/21 08:41:35;;;;;;;102.10;53.08;;;;;;;;;;5093868;28;20106;-72
2020/12/21 08:47:37;;;;;;;76.90;42.55;;;;;;;;;;5097729;28;20065;-72
2020/12/21 08:53:37;;;;;;;67.15;42.03;;;;;;;;;;5097899;28;20401;-72
2020/12/21 08:59:39;;;;;;;34.33;20.88;;;;;;;;;;5097472;28;20078;-72
2020/12/21 09:09:16;;;;;;;37.10;22.35;;;;;;;;;;5086780;28;20391;-72
2020/12/21 09:11:41;;;;;;;32.72;22.10;;;;;;;;;;5070668;28;20040;-72
2020/12/21 09:14:06;;;;;;;41.90;25.02;;;;;;;;;;5076564;28;20028;-72
2020/12/21 09:16:32;;;;;;;40.47;26.15;;;;;;;;;;5064875;28;20063;-72
2020/12/21 09:18:59;;;;;;;41.67;26.15;;;;;;;;;;5090331;28;20044;-72
2020/12/21 09:21:26;;;;;;;41.38;26.20;;;;;;;;;;5068441;28;20036;-72
2020/12/21 09:23:53;;;;;;;38.78;25.60;;;;;;;;;;5096537;28;20024;-72
2020/12/21 09:26:19;;;;;;;40.70;25.77;;;;;;;;;;5096547;28;20040;-72
2020/12/21 09:28:45;;;;;;;37.13;24.55;;;;;;;;;;5078182;28;20035;-72
2020/12/21 09:31:13;;;;;;;33.65;22.70;;;;;;;;;;5096476;28;20032;-72
2020/12/21 09:33:39;;;;;;;36.67;24.40;;;;;;;;;;5096338;28;20032;-73
2020/12/21 09:36:05;;;;;;;35.33;23.73;;;;;;;;;;5078118;28;20036;-72
2020/12/21 09:38:31;;;;;;;38.35;25.55;;;;;;;;;;5078332;28;20028;-72
2020/12/21 09:40:56;;;;;;;40.17;25.63;;;;;;;;;;5078019;28;20180;-72
2020/12/21 09:43:22;;;;;;;37.67;23.90;;;;;;;;;;5096372;28;20024;-72
2020/12/21 09:45:47;;;;;;;34.70;23.33;;;;;;;;;;5096143;28;20028;-72
2020/12/21 09:48:13;;;;;;;37.92;23.75;;;;;;;;;;5078097;28;20498;-72
2020/12/21 09:50:38;;;;;;;35.78;23.02;;;;;;;;;;5096153;28;20431;-73
2020/12/21 09:53:04;;;;;;;35.67;22.83;;;;;;;;;;5077828;28;20028;-72
2020/12/21 09:55:30;;;;;;;35.92;22.73;;;;;;;;;;5077761;28;20126;-72
2020/12/21 09:57:55;;;;;;;34.03;22.00;;;;;;;;;;5075587;28;21394;-72
2020/12/21 10:00:21;;;;;;;45.50;27.23;;;;;;;;;;5083137;28;20114;-69
2020/12/21 10:02:46;;;;;;;43.47;26.50;;;;;;;;;;5070973;28;20035;-68
2020/12/21 10:05:12;;;;;;;42.85;25.88;;;;;;;;;;5074203;28;20029;-69
2020/12/21 10:07:38;;;;;;;35.85;22.63;;;;;;;;;;5055093;28;20037;-69
2020/12/21 10:10:03;;;;;;;37.85;22.88;;;;;;;;;;5055529;28;20075;-69
2020/12/21 10:12:29;;;;;;;32.70;21.88;;;;;;;;;;5041408;28;20103;-69
2020/12/21 10:14:55;;;;;;;21.95;13.48;;;;;;;;;;5068828;28;20122;-68
2020/12/21 10:17:21;;;;;;;28.25;17.75;;;;;;;;;;5071188;28;20036;-73
2020/12/21 10:19:49;;;;;;;32.33;19.58;;;;;;;;;;5066440;28;20066;-69
2020/12/21 10:22:15;;;;;;;30.08;17.40;;;;;;;;;;5063784;28;20025;-72
2020/12/21 10:24:42;;;;;;;23.70;15.75;;;;;;;;;;5063676;28;20025;-76
2020/12/21 10:27:07;;;;;;;22.02;13.85;;;;;;;;;;5069887;28;20032;-67
2020/12/21 10:29:33;;;;;;;22.38;15.45;;;;;;;;;;5061289;28;20390;-67
2020/12/21 10:31:59;;;;;;;24.60;15.88;;;;;;;;;;5050858;28;20439;-67
2020/12/21 10:34:24;;;;;;;24.58;16.02;;;;;;;;;;5056744;28;20373;-66
2020/12/21 10:36:50;;;;;;;24.80;16.30;;;;;;;;;;5022971;28;20041;-66
2020/12/21 10:39:16;;;;;;;26.25;17.63;;;;;;;;;;5065822;28;20029;-67
2020/12/21 10:41:42;;;;;;;27.27;16.73;;;;;;;;;;5054845;28;20037;-67
2020/12/21 10:44:09;;;;;;;28.90;18.20;;;;;;;;;;5057796;28;20025;-66
2020/12/21 10:46:36;;;;;;;22.92;16.10;;;;;;;;;;5062550;28;20029;-65
2020/12/21 10:49:01;;;;;;;17.83;13.57;;;;;;;;;;5054857;28;20075;-64
2020/12/21 10:51:28;;;;;;;21.48;13.85;;;;;;;;;;5054692;28;20037;-64
2020/12/21 10:53:53;;;;;;;21.45;14.25;;;;;;;;;;5054610;28;20036;-64
2020/12/21 10:56:22;;;;;;;27.10;16.60;;;;;;;;;;5065259;28;20095;-64
2020/12/21 10:58:48;;;;;;;22.75;15.45;;;;;;;;;;5054830;28;20120;-65
2020/12/21 11:01:17;;;;;;;20.08;13.70;;;;;;;;;;5036703;28;20131;-64
2020/12/21 11:03:43;;;;;;;23.55;14.95;;;;;;;;;;5034141;28;20064;-65
2020/12/21 11:06:10;;;;;;;24.35;15.52;;;;;;;;;;5062986;28;20044;-65
2020/12/21 11:08:36;;;;;;;15.77;11.10;;;;;;;;;;5056093;28;20083;-64
2020/12/21 11:11:02;;;;;;;22.17;14.55;;;;;;;;;;5074221;28;20116;-64
2020/12/21 11:13:27;;;;;;;22.23;14.90;;;;;;;;;;5056451;28;20099;-64
2020/12/21 11:15:53;;;;;;;34.05;21.48;;;;;;;;;;5056161;28;20115;-64
2020/12/21 11:18:19;;;;;;;26.13;16.65;;;;;;;;;;5074142;28;20021;-64
2020/12/21 11:20:45;;;;;;;24.23;15.57;;;;;;;;;;5074118;28;20047;-64
2020/12/21 11:23:11;;;;;;;23.48;14.95;;;;;;;;;;5039821;28;20032;-64
2020/12/21 11:25:37;;;;;;;22.00;14.80;;;;;;;;;;5066184;28;20025;-64
2020/12/21 11:28:05;;;;;;;20.33;13.90;;;;;;;;;;5078329;28;20020;-64
2020/12/21 11:30:31;;;;;;;21.85;14.77;;;;;;;;;;5073991;28;20037;-64
2020/12/21 11:32:57;;;;;;;21.40;14.73;;;;;;;;;;5073914;28;20107;-64
2020/12/21 11:35:23;;;;;;;24.38;13.75;;;;;;;;;;5056057;28;20040;-64
2020/12/21 11:37:49;;;;;;;22.70;14.93;;;;;;;;;;5073718;28;20078;-64
2020/12/21 11:40:14;;;;;;;20.08;13.27;;;;;;;;;;5073658;28;20127;-64
2020/12/21 11:42:40;;;;;;;22.63;13.98;;;;;;;;;;5073840;28;20025;-64
2020/12/21 11:45:06;;;;;;;20.65;14.63;;;;;;;;;;5062246;28;20116;-64
2020/12/21 11:47:31;;;;;;;20.65;13.75;;;;;;;;;;5087047;28;20020;-64
2020/12/21 11:49:57;;;;;;;23.88;14.23;;;;;;;;;;5093877;28;20093;-64
2020/12/21 11:52:22;;;;;;;20.70;13.35;;;;;;;;;;5080188;28;20025;-64
2020/12/21 11:54:48;;;;;;;23.35;15.05;;;;;;;;;;5063518;28;20036;-66
2020/12/21 11:57:13;;;;;;;24.38;15.95;;;;;;;;;;5080613;28;20036;-67
2020/12/21 11:59:39;;;;;;;24.88;16.95;;;;;;;;;;5084642;28;20067;-66
2020/12/21 12:02:04;;;;;;;30.15;19.20;;;;;;;;;;5085595;28;20060;-66
2020/12/21 12:04:31;;;;;;;26.88;18.05;;;;;;;;;;5093589;28;20028;-66
2020/12/21 12:07:00;;;;;;;21.45;14.70;;;;;;;;;;5084673;28;20032;-66
2020/12/21 12:09:26;;;;;;;23.10;15.27;;;;;;;;;;5060927;28;20501;-67
2020/12/21 12:11:51;;;;;;;28.92;17.73;;;;;;;;;;5079464;28;20064;-66
2020/12/21 12:14:17;;;;;;;21.05;14.65;;;;;;;;;;5083533;28;20166;-67
2020/12/21 12:16:42;;;;;;;25.35;16.55;;;;;;;;;;5055466;28;20108;-67
2020/12/21 12:19:08;;;;;;;25.48;17.17;;;;;;;;;;5072758;28;20040;-67
2020/12/21 12:21:33;;;;;;;29.08;18.08;;;;;;;;;;5057943;28;20054;-66
2020/12/21 12:23:59;;;;;;;26.92;17.45;;;;;;;;;;5080814;28;20081;-67
2020/12/21 12:26:26;;;;;;;31.83;18.73;;;;;;;;;;5079366;28;20036;-67
2020/12/21 12:28:53;;;;;;;21.42;14.93;;;;;;;;;;5062682;28;20054;-67
2020/12/21 12:31:20;;;;;;;21.15;15.40;;;;;;;;;;5089180;28;20024;-66
2020/12/21 12:33:46;;;;;;;30.13;18.02;;;;;;;;;;5062604;28;20486;-67
2020/12/21 12:36:18;;;;;;;18.10;12.38;;;;;;;;;;5071155;28;20038;-68
2020/12/21 12:38:44;;;;;;;19.38;13.25;;;;;;;;;;5061523;28;20051;-68
2020/12/21 12:41:09;;;;;;;17.75;12.15;;;;;;;;;;5079166;28;20032;-68
2020/12/21 12:43:36;;;;;;;15.90;11.05;;;;;;;;;;5082169;28;20382;-68
2020/12/21 12:46:02;;;;;;;20.42;12.55;;;;;;;;;;5085406;28;20498;-68
2020/12/21 12:48:28;;;;;;;27.67;16.83;;;;;;;;;;5046386;28;20367;-68
2020/12/21 12:50:54;;;;;;;34.92;21.00;;;;;;;;;;5079021;28;20035;-68
2020/12/21 12:53:19;;;;;;;39.35;25.42;;;;;;;;;;5074641;28;20489;-68
2020/12/21 12:55:45;;;;;;;35.08;23.40;;;;;;;;;;5093597;28;20169;-68
2020/12/21 12:58:13;;;;;;;28.52;18.98;;;;;;;;;;5093455;28;20047;-68
2020/12/21 13:00:39;;;;;;;31.73;20.40;;;;;;;;;;5092956;28;20031;-68
2020/12/21 13:03:06;;;;;;;42.13;27.40;;;;;;;;;;5093512;28;20436;-68
2020/12/21 13:05:32;;;;;;;47.33;29.98;;;;;;;;;;5092796;28;20162;-68
2020/12/21 13:07:57;;;;;;;47.65;32.00;;;;;;;;;;5092771;28;20123;-68
2020/12/21 13:10:23;;;;;;;41.38;25.77;;;;;;;;;;5092680;28;20044;-68
2020/12/21 13:12:49;;;;;;;33.65;21.23;;;;;;;;;;5092726;28;20372;-68
2020/12/21 13:15:15;;;;;;;25.63;17.88;;;;;;;;;;5078081;28;20078;-68
2020/12/21 13:17:40;;;;;;;36.75;25.10;;;;;;;;;;5086863;28;20063;-68
2020/12/21 13:20:06;;;;;;;48.30;30.25;;;;;;;;;;5094495;28;20094;-68
2020/12/21 13:22:31;;;;;;;69.53;43.78;;;;;;;;;;5084005;28;20086;-68
2020/12/21 13:24:58;;;;;;;132.20;69.55;;;;;;;;;;5084789;28;20020;-68
2020/12/21 13:27:24;;;;;;;79.32;43.42;;;;;;;;;;5081228;28;20043;-68
2020/12/21 13:29:50;;;;;;;39.80;24.80;;;;;;;;;;5054838;28;20040;-68
2020/12/21 13:32:15;;;;;;;49.10;31.63;;;;;;;;;;5060203;28;20036;-68
2020/12/21 13:34:41;;;;;;;36.13;23.55;;;;;;;;;;5092971;28;20066;-68
2020/12/21 13:37:09;;;;;;;35.90;21.42;;;;;;;;;;5076120;28;20064;-68
2020/12/21 13:39:35;;;;;;;31.30;19.52;;;;;;;;;;5057997;28;20082;-68
2020/12/21 13:42:00;;;;;;;30.98;19.83;;;;;;;;;;5089245;28;20024;-68
2020/12/21 13:44:26;;;;;;;27.95;17.98;;;;;;;;;;5090375;28;20494;-68
2020/12/21 13:46:53;;;;;;;30.73;19.25;;;;;;;;;;5079565;28;20471;-68
2020/12/21 13:49:18;;;;;;;29.10;19.33;;;;;;;;;;5084841;28;20036;-67
2020/12/21 13:51:44;;;;;;;34.22;20.67;;;;;;;;;;5085089;28;20494;-68
2020/12/21 13:54:09;;;;;;;33.20;19.80;;;;;;;;;;5075853;28;20036;-68
2020/12/21 13:56:35;;;;;;;35.45;21.42;;;;;;;;;;5076462;28;20124;-67
2020/12/21 13:59:00;;;;;;;35.95;21.23;;;;;;;;;;5060896;28;20024;-68
2020/12/21 14:01:26;;;;;;;34.67;20.23;;;;;;;;;;5082566;28;20037;-68
2020/12/21 14:03:51;;;;;;;33.03;20.55;;;;;;;;;;5086332;28;20036;-68
2020/12/21 14:06:18;;;;;;;58.40;31.90;;;;;;;;;;5081854;28;20059;-68
2020/12/21 14:08:44;;;;;;;139.10;77.88;;;;;;;;;;5067460;28;20047;-68
2020/12/21 14:11:09;;;;;;;116.43;64.40;;;;;;;;;;5066135;28;20399;-69
2020/12/21 14:13:35;;;;;;;83.38;46.83;;;;;;;;;;5051098;28;20036;-68
2020/12/21 14:16:10;;;;;;;81.78;44.63;;;;;;;;;;5031299;28;20364;-68
2020/12/21 14:18:36;;;;;;;72.15;39.65;;;;;;;;;;5071237;28;20075;-68
2020/12/21 14:21:02;;;;;;;66.80;36.78;;;;;;;;;;5037363;28;20057;-69
2020/12/21 14:23:28;;;;;;;103.00;55.20;;;;;;;;;;5037488;28;20082;-68
2020/12/21 14:25:54;;;;;;;165.13;83.90;;;;;;;;;;5037273;28;20033;-68
2020/12/21 14:28:19;;;;;;;173.13;88.93;;;;;;;;;;5055572;28;20537;-68
2020/12/21 14:30:45;;;;;;;153.77;78.38;;;;;;;;;;5055169;28;20033;-68
2020/12/21 14:33:13;;;;;;;122.88;67.43;;;;;;;;;;5055305;28;20048;-72
2020/12/21 14:35:39;;;;;;;146.45;80.03;;;;;;;;;;5055103;28;20059;-72
2020/12/21 14:38:05;;;;;;;105.63;57.25;;;;;;;;;;5055067;28;20045;-70
2020/12/21 14:40:31;;;;;;;101.22;54.25;;;;;;;;;;5054882;28;20385;-71
2020/12/21 14:42:56;;;;;;;82.45;44.38;;;;;;;;;;5056529;28;20041;-71
2020/12/21 14:45:22;;;;;;;61.35;33.67;;;;;;;;;;5068535;28;20100;-71
2020/12/21 14:47:48;;;;;;;50.63;28.73;;;;;;;;;;5055119;28;20036;-71
2020/12/21 14:50:14;;;;;;;68.28;38.45;;;;;;;;;;5054948;28;20082;-71